Time;durP1;ratioP1;P1;durP2;ratioP2;P2;SDS_P1;SDS_P2;PMS_P1;PMS_P2;Temp;Humidity;BMP_temperature;BMP_pressure;BME280_temperature;BME280_humidity;BME280_pressure;Samples;Min_cycle;Max_cycle;Signal;HPM_P1;HPM_P2
2022/12/27 00:01:43;;;;;;;5.55;3.10;;;;;;;6.59;100.00;99494.91;5051453;28;20066;-79
2022/12/27 00:04:09;;;;;;;4.28;3.50;;;;;;;6.61;100.00;99509.47;5051209;28;20028;-80
2022/12/27 00:06:34;;;;;;;6.20;3.60;;;;;;;6.55;100.00;99499.34;5051318;28;20032;-80
2022/12/27 00:09:00;;;;;;;5.82;3.28;;;;;;;6.53;100.00;99505.44;5051582;28;20057;-80
2022/12/27 00:11:28;;;;;;;4.88;2.85;;;;;;;6.51;100.00;99502.94;5051638;28;20017;-80
2022/12/27 00:13:55;;;;;;;5.78;3.20;;;;;;;6.56;100.00;99524.31;5051359;28;20033;-80
2022/12/27 00:16:20;;;;;;;3.58;2.47;;;;;;;6.52;100.00;99517.53;5047822;28;20025;-80
2022/12/27 00:18:47;;;;;;;3.13;2.47;;;;;;;6.49;100.00;99520.25;5055407;28;20093;-80
2022/12/27 00:21:15;;;;;;;5.32;2.90;;;;;;;6.48;100.00;99516.78;5055123;28;20104;-79
2022/12/27 00:23:43;;;;;;;5.35;2.80;;;;;;;6.48;100.00;99527.13;5055484;28;20021;-79
2022/12/27 00:26:15;;;;;;;6.18;3.17;;;;;;;6.57;100.00;99541.53;5055129;28;20070;-79
2022/12/27 00:28:41;;;;;;;6.47;3.65;;;;;;;6.58;100.00;99548.41;5055203;28;20059;-79
2022/12/27 00:31:07;;;;;;;4.53;2.63;;;;;;;6.50;100.00;99540.06;5054854;28;20036;-79
2022/12/27 00:33:35;;;;;;;4.22;3.28;;;;;;;6.40;100.00;99544.66;5054999;28;20021;-79
2022/12/27 00:36:04;;;;;;;5.57;3.53;;;;;;;6.46;100.00;99553.97;5054781;28;20025;-79
2022/12/27 00:38:30;;;;;;;5.63;2.92;;;;;;;6.52;100.00;99569.28;5055144;28;20051;-80
2022/12/27 00:40:56;;;;;;;6.80;3.38;;;;;;;6.52;100.00;99560.69;5054832;28;20017;-79
2022/12/27 00:43:21;;;;;;;7.57;3.45;;;;;;;6.51;100.00;99562.44;5054807;28;20025;-79
2022/12/27 00:45:47;;;;;;;7.18;4.07;;;;;;;6.49;100.00;99556.47;5054712;28;20024;-80
2022/12/27 00:48:12;;;;;;;14.30;4.07;;;;;;;6.41;100.00;99561.88;5054747;28;20021;-80
2022/12/27 00:50:42;;;;;;;7.97;4.00;;;;;;;6.40;100.00;99572.25;5054933;28;20020;-80
2022/12/27 00:53:09;;;;;;;8.23;4.03;;;;;;;6.37;100.00;99568.03;5054584;28;20059;-80
2022/12/27 00:55:35;;;;;;;7.43;4.32;;;;;;;6.41;100.00;99579.16;5054604;28;20457;-80
2022/12/27 00:58:00;;;;;;;6.85;4.03;;;;;;;6.37;100.00;99583.56;5054418;28;20025;-79
2022/12/27 01:00:25;;;;;;;7.88;4.18;;;;;;;6.40;100.00;99600.72;5054159;28;20025;-79
2022/12/27 01:02:51;;;;;;;7.75;4.50;;;;;;;6.35;100.00;99594.84;5054161;28;20549;-79
2022/12/27 01:05:16;;;;;;;7.60;4.35;;;;;;;6.40;100.00;99601.56;5054373;28;20334;-80
2022/12/27 01:07:42;;;;;;;7.82;3.97;;;;;;;6.38;100.00;99613.72;5054535;28;20103;-80
2022/12/27 01:10:07;;;;;;;5.93;3.45;;;;;;;6.36;100.00;99615.50;5054354;28;20021;-79
2022/12/27 01:12:34;;;;;;;7.35;3.85;;;;;;;6.33;100.00;99609.56;5054355;28;20109;-80
2022/12/27 01:14:59;;;;;;;8.43;4.07;;;;;;;6.35;100.00;99616.38;5054083;28;20027;-80
2022/12/27 01:17:24;;;;;;;5.82;3.22;;;;;;;6.34;100.00;99613.84;5053884;28;20021;-80
2022/12/27 01:19:50;;;;;;;6.45;3.60;;;;;;;6.39;100.00;99630.06;5053061;28;20055;-79
2022/12/27 01:22:16;;;;;;;6.85;3.22;;;;;;;6.36;100.00;99630.16;5054194;28;20404;-79
2022/12/27 01:24:41;;;;;;;5.00;3.33;;;;;;;6.37;100.00;99627.53;5054052;28;20032;-79
2022/12/27 01:27:06;;;;;;;5.50;3.67;;;;;;;6.40;100.00;99634.34;5053183;28;20106;-80
2022/12/27 01:29:31;;;;;;;5.40;3.90;;;;;;;6.39;100.00;99637.84;5054047;28;20028;-79
2022/12/27 01:31:57;;;;;;;6.38;4.30;;;;;;;6.36;100.00;99646.56;5053805;28;20031;-80
2022/12/27 01:34:22;;;;;;;6.45;4.72;;;;;;;6.29;100.00;99632.09;5053938;28;20024;-79
2022/12/27 01:36:49;;;;;;;6.60;3.92;;;;;;;6.26;100.00;99642.53;5053830;28;20032;-80
2022/12/27 01:39:14;;;;;;;6.20;4.32;;;;;;;6.26;100.00;99645.09;5051786;28;20090;-79
2022/12/27 01:44:38;;;;;;;4.95;3.60;;;;;;;6.31;100.00;99671.69;5053716;28;20028;-80
2022/12/27 01:47:16;;;;;;;5.70;3.67;;;;;;;6.19;100.00;99675.50;5053641;28;20025;-80
2022/12/27 01:49:56;;;;;;;5.97;3.67;;;;;;;6.22;100.00;99688.31;5053599;28;20456;-80
2022/12/27 01:52:25;;;;;;;5.07;3.63;;;;;;;6.19;100.00;99687.53;5052161;28;20052;-80
2022/12/27 01:54:53;;;;;;;6.82;3.40;;;;;;;6.14;100.00;99692.84;5053427;28;20035;-80
2022/12/27 01:57:20;;;;;;;7.57;3.47;;;;;;;6.05;100.00;99689.69;5053399;28;20017;-80
2022/12/27 01:59:45;;;;;;;3.83;2.70;;;;;;;6.01;100.00;99707.00;5053557;28;20455;-80
2022/12/27 02:02:11;;;;;;;4.93;2.83;;;;;;;5.88;100.00;99695.28;5053264;28;20024;-80
2022/12/27 02:04:37;;;;;;;5.30;3.13;;;;;;;5.91;100.00;99721.03;5050791;28;20028;-80
2022/12/27 02:07:04;;;;;;;4.53;2.80;;;;;;;5.85;100.00;99724.63;5050687;28;20642;-80
2022/12/27 02:09:49;;;;;;;5.25;2.80;;;;;;;5.83;100.00;99723.81;5050787;28;20033;-80
2022/12/27 02:12:16;;;;;;;4.20;2.60;;;;;;;5.72;100.00;99718.06;5050435;28;20040;-80
2022/12/27 02:14:44;;;;;;;5.93;2.38;;;;;;;5.67;100.00;99738.03;5050791;28;20183;-80
2022/12/27 02:17:36;;;;;;;4.93;2.38;;;;;;;5.68;100.00;99750.91;5050441;28;20024;-80
2022/12/27 02:20:07;;;;;;;4.82;2.72;;;;;;;5.66;100.00;99752.69;5010671;28;20029;-80
2022/12/27 02:25:53;;;;;;;5.97;2.88;;;;;;;5.59;100.00;99774.38;5001957;28;20104;-79
2022/12/27 02:28:47;;;;;;;7.13;2.95;;;;;;;5.55;100.00;99777.09;4995631;28;20041;-80
2022/12/27 02:31:23;;;;;;;8.23;3.00;;;;;;;5.41;100.00;99764.50;4952436;29;20047;-80
2022/12/27 02:33:52;;;;;;;6.07;2.58;;;;;;;5.36;100.00;99767.19;4952625;28;20118;-80
2022/12/27 02:36:25;;;;;;;4.45;2.42;;;;;;;5.32;100.00;99769.88;4966940;28;20039;-80
2022/12/27 02:38:54;;;;;;;4.95;2.47;;;;;;;5.25;100.00;99771.75;4974137;28;20081;-80
2022/12/27 02:59:09;;;;;;;5.30;2.55;;;;;;;5.10;100.00;99803.06;4971310;28;20100;-79
2022/12/27 03:04:46;;;;;;;7.72;2.58;;;;;;;4.99;100.00;99801.59;4971165;28;20069;-79
2022/12/27 03:07:36;;;;;;;11.30;2.60;;;;;;;4.95;100.00;99805.09;4974074;28;20490;-79
2022/12/27 03:16:30;;;;;;;8.32;2.75;;;;;;;4.77;100.00;99808.09;5029384;28;20584;-79
2022/12/27 03:27:43;;;;;;;15.20;4.03;;;;;;;4.49;100.00;99836.13;5029608;28;20160;-79
2022/12/27 03:33:13;;;;;;;6.57;3.42;;;;;;;4.35;100.00;99856.19;5029488;28;20508;-79
2022/12/27 03:39:03;;;;;;;8.02;2.90;;;;;;;4.14;100.00;99883.19;5029439;28;20432;-79
2022/12/27 03:44:24;;;;;;;4.38;2.70;;;;;;;4.08;100.00;99889.28;5029415;28;20104;-79
2022/12/27 03:47:20;;;;;;;4.95;2.78;;;;;;;4.15;100.00;99897.78;5029158;28;20037;-79
2022/12/27 03:50:01;;;;;;;8.52;2.90;;;;;;;4.13;100.00;99878.88;5030865;28;20481;-79
2022/12/27 03:52:33;;;;;;;7.60;3.33;;;;;;;4.14;100.00;99881.47;5035861;28;20454;-79
2022/12/27 03:54:59;;;;;;;8.70;3.15;;;;;;;4.24;100.00;99910.50;5038420;28;20104;-79
2022/12/27 03:57:26;;;;;;;8.65;2.97;;;;;;;4.24;100.00;99900.19;5038005;28;20021;-79
2022/12/27 03:59:52;;;;;;;7.85;3.17;;;;;;;4.30;100.00;99904.38;5038299;28;20029;-79
2022/12/27 04:02:18;;;;;;;8.88;3.13;;;;;;;4.30;100.00;99909.53;5038378;28;20070;-80
2022/12/27 04:04:43;;;;;;;7.55;3.42;;;;;;;4.20;100.00;99908.84;5038366;28;20468;-79
2022/12/27 04:07:11;;;;;;;7.15;3.78;;;;;;;4.12;100.00;99919.28;5038161;28;20017;-80
2022/12/27 04:36:56;;;;;;;6.97;3.10;;;;;;;3.43;100.00;99953.78;5037778;28;20476;-80
2022/12/27 04:39:21;;;;;;;5.80;2.78;;;;;;;3.36;100.00;99949.56;5037797;28;20041;-80
2022/12/27 04:55:31;;;;;;;9.68;2.65;;;;;;;3.01;100.00;99980.88;5037804;28;20503;-80
2022/12/27 04:57:57;;;;;;;6.28;2.60;;;;;;;2.87;100.00;99959.59;5037774;28;20021;-80
2022/12/27 05:03:14;;;;;;;8.02;2.78;;;;;;;2.93;100.00;99978.38;5033946;28;20052;-79
2022/12/27 05:05:41;;;;;;;6.00;2.65;;;;;;;2.87;100.00;99988.72;5034601;28;20026;-79
2022/12/27 05:16:19;;;;;;;8.38;2.55;;;;;;;2.74;100.00;100010.31;5034578;28;20039;-79
2022/12/27 05:18:45;;;;;;;9.85;3.00;;;;;;;2.66;100.00;100010.38;5034425;28;20520;-79
2022/12/27 05:21:11;;;;;;;7.53;3.30;;;;;;;2.60;100.00;100007.81;5034502;28;20405;-79
2022/12/27 05:26:23;;;;;;;6.85;2.42;;;;;;;2.60;100.00;100027.56;5033950;28;20487;-79
2022/12/27 05:28:51;;;;;;;11.73;2.92;;;;;;;2.55;100.00;100025.03;5034435;28;20471;-79
2022/12/27 05:31:16;;;;;;;6.72;3.13;;;;;;;2.59;100.00;100039.56;5033956;28;20021;-79
2022/12/27 05:33:41;;;;;;;13.60;3.33;;;;;;;2.63;100.00;100040.38;5033963;28;20497;-79
2022/12/27 05:36:07;;;;;;;7.55;2.80;;;;;;;2.65;100.00;100041.22;5034127;28;20040;-79
2022/12/27 05:38:33;;;;;;;8.50;2.83;;;;;;;2.75;100.00;100050.59;5033703;28;20091;-80
2022/12/27 05:41:00;;;;;;;10.18;3.25;;;;;;;2.75;100.00;100045.44;5034065;28;20100;-79
2022/12/27 05:43:27;;;;;;;6.53;3.03;;;;;;;2.83;100.00;100051.38;5048963;28;20049;-80
2022/12/27 05:45:53;;;;;;;6.82;2.55;;;;;;;2.83;100.00;100053.09;5033722;28;20397;-80
2022/12/27 05:48:19;;;;;;;8.27;2.58;;;;;;;2.84;100.00;100044.50;5032173;28;20025;-79
2022/12/27 05:50:45;;;;;;;8.90;2.95;;;;;;;2.91;100.00;100053.88;5033779;28;20068;-79
2022/12/27 05:53:10;;;;;;;5.80;2.75;;;;;;;2.89;100.00;100058.16;5032636;28;20481;-79
2022/12/27 05:55:36;;;;;;;12.73;2.97;;;;;;;2.85;100.00;100059.06;5033680;28;20041;-80
2022/12/27 05:58:01;;;;;;;10.35;3.10;;;;;;;2.72;100.00;100045.47;5032475;28;20039;-80
2022/12/27 06:00:26;;;;;;;8.13;3.67;;;;;;;2.65;100.00;100044.63;5033466;28;20094;-79
2022/12/27 06:02:51;;;;;;;6.35;2.47;;;;;;;2.63;100.00;100056.66;5048866;28;20025;-79
2022/12/27 06:05:17;;;;;;;8.85;3.28;;;;;;;2.57;100.00;100067.03;5033380;28;20014;-79
2022/12/27 06:07:42;;;;;;;14.77;3.53;;;;;;;2.52;100.00;100073.88;5033636;28;20067;-80
2022/12/27 06:10:08;;;;;;;12.60;4.40;;;;;;;2.45;100.00;100080.81;5048829;28;20064;-79
2022/12/27 06:12:34;;;;;;;9.82;2.80;;;;;;;2.34;100.00;100066.31;5033135;28;20022;-80
2022/12/27 06:14:59;;;;;;;10.75;3.45;;;;;;;2.38;100.00;100080.84;5033267;28;20017;-80
2022/12/27 06:17:25;;;;;;;7.22;3.63;;;;;;;2.23;100.00;100067.25;5032747;28;20101;-80
2022/12/27 06:19:50;;;;;;;7.30;3.08;;;;;;;2.33;100.00;100095.47;5033521;28;20032;-80
2022/12/27 06:22:16;;;;;;;11.00;3.83;;;;;;;2.29;100.00;100086.91;5033591;28;20575;-80
2022/12/27 06:24:41;;;;;;;12.98;3.70;;;;;;;2.28;100.00;100098.06;5033374;28;20457;-80
2022/12/27 06:27:06;;;;;;;7.32;3.60;;;;;;;2.25;100.00;100096.34;5048400;28;20056;-80
2022/12/27 06:29:33;;;;;;;6.90;2.95;;;;;;;2.25;100.00;100101.47;5033174;28;20520;-80
2022/12/27 06:31:58;;;;;;;11.55;3.80;;;;;;;2.16;100.00;100086.13;5033190;28;20053;-80
2022/12/27 06:34:23;;;;;;;15.68;4.50;;;;;;;2.20;100.00;100097.25;5033169;28;20449;-80
2022/12/27 06:36:50;;;;;;;9.15;3.22;;;;;;;2.12;100.00;100102.41;5033336;28;20029;-79
2022/12/27 06:39:18;;;;;;;13.57;3.92;;;;;;;2.10;100.00;100098.13;5032847;28;20037;-80
2022/12/27 06:41:44;;;;;;;11.90;3.70;;;;;;;2.08;100.00;100103.28;5031747;28;20052;-80
2022/12/27 06:44:10;;;;;;;13.02;4.20;;;;;;;2.09;100.00;100114.41;5032894;28;20460;-80
2022/12/27 06:46:35;;;;;;;11.60;3.92;;;;;;;2.15;100.00;100116.94;5032268;28;20449;-79
2022/12/27 06:49:00;;;;;;;10.07;3.63;;;;;;;2.14;100.00;100115.25;5033034;28;20151;-80
2022/12/27 06:51:26;;;;;;;6.25;3.30;;;;;;;2.08;100.00;100116.13;5032926;28;20108;-80
2022/12/27 06:53:51;;;;;;;9.98;3.85;;;;;;;2.06;100.00;100122.13;5032651;28;20055;-81
2022/12/27 06:56:19;;;;;;;8.27;4.05;;;;;;;2.13;100.00;100141.81;5032551;28;20026;-81
2022/12/27 06:58:46;;;;;;;11.43;4.15;;;;;;;2.11;100.00;100143.53;5032392;28;20529;-79
2022/12/27 07:01:22;;;;;;;6.38;2.85;;;;;;;2.11;100.00;100146.97;5041459;28;20029;-79
2022/12/27 07:03:49;;;;;;;7.57;2.97;;;;;;;2.04;100.00;100135.00;5052492;28;20029;-80
2022/12/27 07:06:14;;;;;;;13.57;3.80;;;;;;;2.06;100.00;100142.69;5050785;28;20554;-79
2022/12/27 07:08:40;;;;;;;12.48;3.67;;;;;;;2.08;100.00;100146.97;5051796;28;20029;-79
2022/12/27 07:11:09;;;;;;;12.52;4.60;;;;;;;2.13;100.00;100150.38;5052286;28;20360;-79
2022/12/27 07:13:36;;;;;;;10.90;4.18;;;;;;;2.09;100.00;100147.81;5051992;28;20472;-79
2022/12/27 07:16:06;;;;;;;9.35;3.85;;;;;;;2.15;100.00;100155.50;5051142;28;20020;-79
2022/12/27 07:18:32;;;;;;;8.48;3.53;;;;;;;2.16;100.00;100162.38;5052453;28;20039;-80
2022/12/27 07:20:57;;;;;;;13.82;3.75;;;;;;;2.22;100.00;100178.59;5052156;28;20391;-80
2022/12/27 07:23:23;;;;;;;10.10;3.83;;;;;;;2.23;100.00;100180.31;5051908;28;20104;-80
2022/12/27 07:25:48;;;;;;;11.13;3.28;;;;;;;2.22;100.00;100172.59;5051408;28;20369;-80
2022/12/27 07:28:13;;;;;;;13.10;4.38;;;;;;;2.24;100.00;100179.47;5069366;28;20047;-80
2022/12/27 07:30:40;;;;;;;10.52;3.70;;;;;;;2.28;100.00;100190.59;5066145;28;20025;-79
2022/12/27 07:33:06;;;;;;;9.93;3.35;;;;;;;2.40;100.00;100207.66;5063694;28;20055;-79
2022/12/27 07:35:32;;;;;;;9.02;3.33;;;;;;;2.39;100.00;100203.38;5069313;28;20024;-79
2022/12/27 07:37:57;;;;;;;9.40;4.00;;;;;;;2.43;100.00;100203.34;5069254;28;20095;-79
2022/12/27 07:40:23;;;;;;;10.85;3.42;;;;;;;2.54;100.00;100205.88;5069340;28;20024;-79
2022/12/27 07:42:48;;;;;;;9.70;3.70;;;;;;;2.65;100.00;100198.09;5069571;28;20040;-79
2022/12/27 07:45:14;;;;;;;8.07;2.95;;;;;;;2.82;100.00;100203.13;5069715;28;20035;-80
2022/12/27 07:47:39;;;;;;;10.65;3.60;;;;;;;3.03;100.00;100207.28;5069268;28;20039;-80
2022/12/27 07:50:05;;;;;;;9.45;4.00;;;;;;;3.13;100.00;100202.09;5069730;28;20032;-79
2022/12/27 07:52:30;;;;;;;13.82;4.03;;;;;;;3.28;100.00;100198.50;5069042;28;20025;-79
2022/12/27 07:54:56;;;;;;;12.32;3.67;;;;;;;3.35;100.00;100184.72;5069390;28;20384;-79
2022/12/27 07:57:21;;;;;;;6.35;2.75;;;;;;;3.45;100.00;100198.38;5069620;28;20071;-80
2022/12/27 07:59:46;;;;;;;9.02;3.20;;;;;;;3.59;100.00;100201.69;5056163;28;20039;-79
2022/12/27 08:02:12;;;;;;;10.57;3.63;;;;;;;3.59;100.00;100198.28;5050613;28;20484;-80
2022/12/27 08:04:38;;;;;;;10.40;3.58;;;;;;;3.71;100.00;100211.88;5051562;28;20107;-80
2022/12/27 08:07:12;;;;;;;8.32;3.33;;;;;;;3.84;100.00;100209.19;5051708;28;20032;-80
2022/12/27 08:09:39;;;;;;;11.38;3.72;;;;;;;3.94;100.00;100215.94;5051440;28;20024;-80
2022/12/27 08:12:05;;;;;;;6.40;3.67;;;;;;;3.96;100.00;100211.63;5051559;28;20107;-80
2022/12/27 08:14:31;;;;;;;9.75;3.35;;;;;;;3.98;100.00;100212.47;5051522;28;20021;-80
2022/12/27 08:17:01;;;;;;;7.88;3.13;;;;;;;4.12;100.00;100215.72;5051534;28;20040;-79
2022/12/27 08:19:26;;;;;;;15.18;4.20;;;;;;;4.07;100.00;100206.34;5031346;28;20045;-80
2022/12/27 08:21:52;;;;;;;9.20;3.08;;;;;;;4.12;100.00;100214.88;5031687;28;20049;-80
2022/12/27 08:24:17;;;;;;;6.47;3.10;;;;;;;4.20;100.00;100225.97;5031890;28;20357;-80
2022/12/27 08:26:42;;;;;;;7.47;3.47;;;;;;;4.09;100.00;100220.06;5031255;28;20480;-80
2022/12/27 08:29:08;;;;;;;5.90;3.00;;;;;;;4.11;100.00;100220.91;5031681;28;20021;-79
2022/12/27 08:31:33;;;;;;;7.63;3.03;;;;;;;4.13;100.00;100230.34;5031205;28;20087;-79
2022/12/27 08:33:58;;;;;;;9.60;3.40;;;;;;;4.12;100.00;100222.63;5031543;28;20473;-79
2022/12/27 08:36:23;;;;;;;10.27;3.65;;;;;;;4.15;100.00;100233.75;5031498;28;20411;-79
2022/12/27 08:38:52;;;;;;;20.02;8.02;;;;;;;4.10;100.00;100230.38;5035185;28;20107;-80
2022/12/27 08:41:19;;;;;;;13.77;8.75;;;;;;;4.18;99.93;100235.44;5035375;28;20028;-79
2022/12/27 08:43:45;;;;;;;18.70;10.80;;;;;;;4.12;99.99;100222.63;5035321;28;20026;-79
2022/12/27 08:46:10;;;;;;;13.57;7.72;;;;;;;4.07;99.44;100238.13;5035042;28;20075;-79
2022/12/27 08:48:36;;;;;;;12.77;5.40;;;;;;;3.99;99.56;100227.91;5034636;28;20072;-79
2022/12/27 08:51:04;;;;;;;11.20;5.28;;;;;;;4.00;99.69;100244.22;5034959;28;20504;-79
2022/12/27 08:53:29;;;;;;;9.82;4.85;;;;;;;3.98;100.00;100238.25;5034657;28;20017;-79
2022/12/27 08:55:56;;;;;;;8.50;4.95;;;;;;;3.87;100.00;100222.88;5035147;28;20540;-80
2022/12/27 08:58:22;;;;;;;10.23;4.03;;;;;;;3.92;100.00;100240.91;5034914;28;20108;-79
2022/12/27 09:00:47;;;;;;;13.77;5.35;;;;;;;3.89;100.00;100246.91;5034834;28;20376;-79
2022/12/27 09:03:14;;;;;;;8.02;3.92;;;;;;;3.86;100.00;100236.63;5035034;28;20023;-79
2022/12/27 09:05:40;;;;;;;7.47;4.60;;;;;;;3.86;100.00;100249.50;5034911;28;20105;-79
2022/12/27 09:08:05;;;;;;;10.52;6.13;;;;;;;3.71;100.00;100217.03;5034492;28;20108;-78
2022/12/27 09:10:30;;;;;;;8.75;4.60;;;;;;;3.72;100.00;100229.03;5034564;28;20056;-79
2022/12/27 09:12:56;;;;;;;9.93;4.30;;;;;;;3.80;100.00;100254.75;5038133;28;20021;-77
2022/12/27 09:15:21;;;;;;;11.20;7.78;;;;;;;3.80;100.00;100254.75;5044246;28;20023;-78
2022/12/27 09:17:46;;;;;;;12.65;7.60;;;;;;;3.73;100.00;100242.78;5044481;28;20067;-79
2022/12/27 09:20:12;;;;;;;16.25;11.10;;;;;;;3.75;100.00;100246.22;5043392;28;20017;-79
2022/12/27 09:22:38;;;;;;;11.25;6.38;;;;;;;3.83;100.00;100259.84;5041671;28;20054;-80
2022/12/27 09:25:04;;;;;;;13.07;6.53;;;;;;;3.83;100.00;100256.41;5033980;28;20029;-80
2022/12/27 09:27:29;;;;;;;9.38;5.25;;;;;;;3.83;100.00;100252.13;5033778;28;20100;-79
2022/12/27 09:29:54;;;;;;;15.93;5.38;;;;;;;3.86;100.00;100254.66;5033973;28;20025;-80
2022/12/27 09:32:20;;;;;;;14.68;8.07;;;;;;;3.79;100.00;100226.41;5034054;28;20028;-80
2022/12/27 09:34:45;;;;;;;15.80;8.20;;;;;;;3.92;100.00;100240.91;5032368;28;20021;-80
2022/12/27 09:37:11;;;;;;;10.73;6.75;;;;;;;3.92;99.63;100246.91;5033732;28;20079;-78
2022/12/27 09:39:36;;;;;;;9.32;4.80;;;;;;;3.96;99.20;100251.16;5033773;28;20041;-79
2022/12/27 09:42:27;;;;;;;13.55;6.45;;;;;;;3.94;98.38;100244.28;5033664;28;20021;-79
2022/12/27 09:45:04;;;;;;;6.10;3.47;;;;;;;4.00;99.03;100241.63;5011301;28;20038;-79
2022/12/27 09:47:39;;;;;;;7.72;3.63;;;;;;;4.01;98.55;100261.41;5010602;28;20073;-79
2022/12/27 09:50:29;;;;;;;10.55;4.72;;;;;;;4.04;98.47;100255.34;5011143;28;20582;-78
2022/12/27 09:53:16;;;;;;;11.33;5.70;;;;;;;4.02;97.52;100263.13;5011377;28;20018;-79
2022/12/27 09:55:50;;;;;;;7.65;4.07;;;;;;;4.09;97.59;100271.63;5010994;28;20037;-77
2022/12/27 09:58:39;;;;;;;10.45;4.13;;;;;;;4.06;97.70;100259.63;5011606;28;20065;-79
2022/12/27 10:01:18;;;;;;;6.88;3.90;;;;;;;4.09;97.84;100259.59;5011665;28;20032;-77
2022/12/27 10:03:44;;;;;;;10.80;5.93;;;;;;;4.13;96.94;100273.28;5011351;28;20042;-77
2022/12/27 10:06:15;;;;;;;6.70;4.03;;;;;;;4.08;96.63;100282.81;5011258;28;20114;-81
2022/12/27 10:09:25;;;;;;;13.38;4.38;;;;;;;3.95;97.65;100280.34;5011023;28;20041;-79
2022/12/27 10:12:30;;;;;;;7.55;3.83;;;;;;;3.83;98.52;100267.56;4952837;29;20043;-80
2022/12/27 10:15:01;;;;;;;7.75;3.50;;;;;;;3.77;98.83;100269.38;4953062;28;20042;-78
2022/12/27 10:18:01;;;;;;;12.00;4.45;;;;;;;3.69;99.05;100254.81;4969445;28;20042;-79
2022/12/27 10:20:35;;;;;;;9.20;4.80;;;;;;;3.70;99.52;100255.69;4972103;28;20030;-79
2022/12/27 10:23:10;;;;;;;10.60;4.80;;;;;;;3.76;100.00;100263.38;5002397;28;20168;-79
2022/12/27 10:25:38;;;;;;;6.85;4.53;;;;;;;3.71;100.00;100253.09;5008351;28;20595;-80
2022/12/27 10:28:36;;;;;;;6.60;4.32;;;;;;;3.85;100.00;100273.59;5010815;28;20054;-80
2022/12/27 10:31:03;;;;;;;8.70;4.20;;;;;;;3.89;99.65;100277.84;4978587;28;20092;-78
2022/12/27 10:33:31;;;;;;;11.95;5.20;;;;;;;3.92;99.65;100276.97;4975926;28;20109;-80
2022/12/27 10:35:57;;;;;;;5.97;4.07;;;;;;;4.00;99.89;100288.03;4957219;28;20421;-80
2022/12/27 10:38:23;;;;;;;7.60;3.30;;;;;;;4.08;99.02;100287.97;4970930;28;20046;-80
2022/12/27 10:41:06;;;;;;;8.38;4.20;;;;;;;4.29;97.86;100279.16;4971277;28;20030;-81
2022/12/27 10:43:36;;;;;;;8.75;5.03;;;;;;;4.38;97.61;100272.19;4975349;28;20030;-82
2022/12/27 10:46:18;;;;;;;6.40;3.83;;;;;;;4.67;97.57;100299.34;4971026;28;20023;-81
2022/12/27 10:49:02;;;;;;;8.95;3.97;;;;;;;4.75;96.03;100282.91;4998092;28;20567;-80
2022/12/27 10:51:38;;;;;;;10.27;4.95;;;;;;;4.77;94.62;100300.97;5026018;28;20029;-80
2022/12/27 10:54:12;;;;;;;8.02;4.55;;;;;;;4.67;94.46;100294.19;5030090;28;20041;-79
2022/12/27 10:56:40;;;;;;;9.60;4.10;;;;;;;4.65;94.60;100283.91;5029870;28;20025;-80
2022/12/27 10:59:17;;;;;;;6.40;4.25;;;;;;;4.64;94.80;100284.78;5029714;28;20017;-77
2022/12/27 11:01:45;;;;;;;10.20;7.18;;;;;;;4.72;94.51;100289.84;5029464;28;20377;-79
2022/12/27 11:04:13;;;;;;;7.25;4.20;;;;;;;4.79;93.67;100294.03;5030018;28;20092;-78
2022/12/27 11:06:40;;;;;;;12.43;6.63;;;;;;;4.79;93.67;100280.28;5030757;28;20033;-78
2022/12/27 11:09:31;;;;;;;12.80;5.57;;;;;;;4.84;94.67;100291.38;5052108;28;20047;-79
2022/12/27 11:12:17;;;;;;;10.52;6.20;;;;;;;4.86;93.85;100281.91;5052685;28;20017;-79
2022/12/27 11:14:57;;;;;;;6.68;3.67;;;;;;;4.90;93.49;100278.41;5029740;28;20576;-78
2022/12/27 11:17:27;;;;;;;7.80;4.35;;;;;;;4.90;92.76;100273.25;5029683;28;20033;-78
2022/12/27 11:19:54;;;;;;;6.53;4.53;;;;;;;4.87;92.89;100275.88;5029532;28;20045;-77
2022/12/27 11:22:20;;;;;;;14.25;6.50;;;;;;;4.88;92.81;100278.41;5029753;28;20031;-78
2022/12/27 11:24:49;;;;;;;16.77;8.07;;;;;;;4.87;93.34;100291.34;5028800;28;20120;-78
2022/12/27 11:27:26;;;;;;;6.45;3.83;;;;;;;4.83;92.74;100282.81;5017575;28;20081;-77
2022/12/27 11:29:55;;;;;;;12.15;5.88;;;;;;;4.90;92.85;100284.44;5020742;28;20029;-77
2022/12/27 11:32:22;;;;;;;9.52;5.38;;;;;;;4.90;92.42;100284.44;5018094;28;20038;-77
2022/12/27 11:34:51;;;;;;;11.30;5.97;;;;;;;4.90;92.53;100294.75;5019456;28;20025;-78
2022/12/27 11:37:20;;;;;;;12.38;7.13;;;;;;;4.87;92.75;100288.78;5022089;28;20034;-77
2022/12/27 11:39:49;;;;;;;12.15;6.90;;;;;;;5.02;92.11;100308.38;5017012;28;20475;-77
2022/12/27 11:42:20;;;;;;;10.45;4.47;;;;;;;5.07;91.57;100291.94;5011816;28;20034;-78
2022/12/27 11:45:10;;;;;;;10.57;5.38;;;;;;;5.07;91.21;100291.09;5011999;28;20382;-78
2022/12/27 11:47:42;;;;;;;10.73;6.53;;;;;;;5.03;90.89;100274.78;5009127;28;20033;-77
2022/12/27 11:50:26;;;;;;;9.15;4.68;;;;;;;5.11;90.78;100293.63;5009708;28;20037;-78
2022/12/27 11:53:15;;;;;;;9.48;5.30;;;;;;;5.13;90.82;100299.59;5030338;28;20044;-78
2022/12/27 11:56:11;;;;;;;11.75;6.70;;;;;;;5.11;91.10;100293.63;5031584;28;20025;-78
2022/12/27 11:58:39;;;;;;;9.98;4.18;;;;;;;5.13;91.02;100288.41;5031570;28;20033;-78
2022/12/27 12:01:28;;;;;;;8.93;4.63;;;;;;;5.05;91.19;100279.94;5031644;28;20116;-77
2022/12/27 12:04:35;;;;;;;16.92;8.48;;;;;;;5.08;91.72;100277.31;5031643;28;20181;-78
2022/12/27 12:07:22;;;;;;;10.10;5.18;;;;;;;5.14;91.31;100293.59;5031264;28;20025;-78
2022/12/27 12:10:38;;;;;;;7.70;4.50;;;;;;;5.15;91.19;100299.59;5031505;28;20022;-77
2022/12/27 12:13:51;;;;;;;8.40;4.63;;;;;;;5.07;90.89;100291.94;5013425;28;20030;-77
2022/12/27 12:16:45;;;;;;;11.10;5.82;;;;;;;5.10;90.64;100293.63;5013244;28;20076;-78
2022/12/27 12:19:31;;;;;;;7.05;4.95;;;;;;;5.06;90.26;100297.16;5013443;28;20021;-78
2022/12/27 12:22:03;;;;;;;6.50;4.72;;;;;;;4.91;89.72;100274.97;5013075;28;20034;-81
2022/12/27 12:24:42;;;;;;;7.05;3.42;;;;;;;4.91;90.66;100300.78;5013193;28;20042;-79
2022/12/27 12:27:25;;;;;;;9.48;4.05;;;;;;;4.78;90.22;100296.66;5013183;28;20057;-80
2022/12/27 12:30:11;;;;;;;7.40;5.00;;;;;;;4.60;90.71;100311.47;5012816;28;20042;-79
2022/12/27 12:32:48;;;;;;;10.93;4.15;;;;;;;4.44;91.50;100303.06;5012609;28;20038;-79
2022/12/27 12:35:19;;;;;;;9.27;4.40;;;;;;;4.38;91.54;100313.47;5013003;28;20030;-80
2022/12/27 12:38:00;;;;;;;8.35;3.90;;;;;;;4.28;91.52;100316.13;5012862;28;20045;-79
2022/12/27 12:40:37;;;;;;;;;;;;;;;4.24;92.43;100315.31;5013627;28;20366;-79
2022/12/27 12:43:34;;;;;;;8.32;4.05;;;;;;;4.28;92.89;100311.81;5013074;28;20420;-80
2022/12/27 12:46:25;;;;;;;11.05;4.13;;;;;;;4.37;92.09;100311.72;5012410;28;20033;-76
2022/12/27 12:49:09;;;;;;;10.05;3.65;;;;;;;4.42;92.53;100306.50;5017877;28;20033;-77
2022/12/27 12:52:03;;;;;;;9.70;4.00;;;;;;;4.57;91.30;100311.50;5034859;28;20491;-80
2022/12/27 12:54:47;;;;;;;5.68;3.88;;;;;;;4.57;91.17;100313.25;5035014;28;20071;-80
2022/12/27 12:57:39;;;;;;;8.45;3.20;;;;;;;4.62;91.46;100308.88;5033495;28;20047;-80
2022/12/27 13:00:11;;;;;;;8.20;3.42;;;;;;;4.53;90.98;100296.09;5012603;28;20041;-80
2022/12/27 13:03:18;;;;;;;5.88;3.78;;;;;;;4.58;90.49;100310.63;5012257;28;20053;-80
2022/12/27 13:06:02;;;;;;;5.78;3.55;;;;;;;4.60;91.07;100302.91;5012037;28;20063;-80
2022/12/27 13:08:39;;;;;;;8.57;5.07;;;;;;;4.69;90.10;100321.69;5012481;28;20377;-80
2022/12/27 13:11:15;;;;;;;6.28;3.53;;;;;;;4.63;90.30;100318.31;5012464;28;20093;-80
2022/12/27 13:14:03;;;;;;;4.78;2.80;;;;;;;4.55;90.53;100308.09;5012113;28;20029;-80
2022/12/27 13:16:50;;;;;;;6.70;3.78;;;;;;;4.68;90.30;100326.88;5012362;28;20520;-80
2022/12/27 13:19:40;;;;;;;6.85;3.63;;;;;;;4.63;90.76;100326.06;5012301;28;20410;-80
2022/12/27 13:22:24;;;;;;;9.00;3.83;;;;;;;4.59;91.29;100326.97;5011961;28;20093;-80
2022/12/27 13:25:18;;;;;;;6.03;3.33;;;;;;;4.56;90.57;100335.59;5011699;28;20057;-83
2022/12/27 13:27:56;;;;;;;6.80;3.92;;;;;;;4.52;90.78;100335.66;5011777;28;20018;-83
2022/12/27 13:30:37;;;;;;;5.57;3.28;;;;;;;4.52;91.55;100340.81;5011868;28;20025;-83
2022/12/27 13:33:11;;;;;;;8.13;4.28;;;;;;;4.54;91.44;100339.91;5012316;28;20053;-82
2022/12/27 13:36:15;;;;;;;8.65;3.90;;;;;;;4.48;91.09;100342.56;5011954;28;20566;-81